sensor_id;sensor_type;location;lat;lon;timestamp;temperature;humidity
24338;DHT22;12457;50.832;4.346;2023-08-21T00:00:36;21.50;99.90
24338;DHT22;12457;50.832;4.346;2023-08-21T00:03:02;21.50;99.90
24338;DHT22;12457;50.832;4.346;2023-08-21T00:05:29;21.50;99.90
24338;DHT22;12457;50.832;4.346;2023-08-21T00:07:55;21.50;99.90
24338;DHT22;12457;50.832;4.346;2023-08-21T00:10:21;21.50;99.90
24338;DHT22;12457;50.832;4.346;2023-08-21T00:12:46;21.50;99.90
24338;DHT22;12457;50.832;4.346;2023-08-21T00:15:12;21.50;99.90
24338;DHT22;12457;50.832;4.346;2023-08-21T00:17:38;21.50;99.90
24338;DHT22;12457;50.832;4.346;2023-08-21T00:20:04;21.30;99.90
24338;DHT22;12457;50.832;4.346;2023-08-21T00:22:30;21.30;99.90
24338;DHT22;12457;50.832;4.346;2023-08-21T00:24:56;21.20;99.90
24338;DHT22;12457;50.832;4.346;2023-08-21T00:27:22;21.20;99.90
24338;DHT22;12457;50.832;4.346;2023-08-21T00:29:48;21.30;99.90
24338;DHT22;12457;50.832;4.346;2023-08-21T00:32:29;21.30;99.90
24338;DHT22;12457;50.832;4.346;2023-08-21T00:34:55;21.40;99.90
24338;DHT22;12457;50.832;4.346;2023-08-21T00:37:20;21.40;99.90
24338;DHT22;12457;50.832;4.346;2023-08-21T00:39:46;21.40;99.90
24338;DHT22;12457;50.832;4.346;2023-08-21T00:42:12;21.30;99.90
24338;DHT22;12457;50.832;4.346;2023-08-21T00:44:37;21.20;99.90
24338;DHT22;12457;50.832;4.346;2023-08-21T00:47:04;21.10;99.90
24338;DHT22;12457;50.832;4.346;2023-08-21T00:49:30;21.00;99.90
24338;DHT22;12457;50.832;4.346;2023-08-21T00:51:56;21.00;99.90
24338;DHT22;12457;50.832;4.346;2023-08-21T00:54:22;21.10;99.90
24338;DHT22;12457;50.832;4.346;2023-08-21T00:56:48;21.00;99.90
24338;DHT22;12457;50.832;4.346;2023-08-21T00:59:16;21.00;99.90
24338;DHT22;12457;50.832;4.346;2023-08-21T01:01:42;21.00;99.90
24338;DHT22;12457;50.832;4.346;2023-08-21T01:04:08;21.00;99.90
24338;DHT22;12457;50.832;4.346;2023-08-21T01:06:34;20.90;99.90
24338;DHT22;12457;50.832;4.346;2023-08-21T01:10:03;21.10;99.90
24338;DHT22;12457;50.832;4.346;2023-08-21T01:12:15;21.20;99.90
24338;DHT22;12457;50.832;4.346;2023-08-21T01:15:03;21.10;99.90
24338;DHT22;12457;50.832;4.346;2023-08-21T01:17:34;21.10;99.90
24338;DHT22;12457;50.832;4.346;2023-08-21T01:20:01;20.90;99.90
24338;DHT22;12457;50.832;4.346;2023-08-21T01:22:27;20.90;99.90
24338;DHT22;12457;50.832;4.346;2023-08-21T01:24:56;20.70;99.90
24338;DHT22;12457;50.832;4.346;2023-08-21T01:27:22;20.70;99.90
24338;DHT22;12457;50.832;4.346;2023-08-21T01:29:48;20.80;99.90
24338;DHT22;12457;50.832;4.346;2023-08-21T01:32:29;20.90;99.90
24338;DHT22;12457;50.832;4.346;2023-08-21T01:34:59;20.80;99.90
24338;DHT22;12457;50.832;4.346;2023-08-21T01:37:26;20.80;99.90
24338;DHT22;12457;50.832;4.346;2023-08-21T01:39:52;20.70;99.90
24338;DHT22;12457;50.832;4.346;2023-08-21T01:42:17;20.80;99.90
24338;DHT22;12457;50.832;4.346;2023-08-21T01:44:43;20.70;99.90
24338;DHT22;12457;50.832;4.346;2023-08-21T01:47:12;20.80;99.90
24338;DHT22;12457;50.832;4.346;2023-08-21T01:49:38;20.80;99.90
24338;DHT22;12457;50.832;4.346;2023-08-21T01:52:04;20.80;99.90
24338;DHT22;12457;50.832;4.346;2023-08-21T01:54:30;20.70;99.90
24338;DHT22;12457;50.832;4.346;2023-08-21T01:56:55;20.70;99.90
24338;DHT22;12457;50.832;4.346;2023-08-21T01:59:23;20.70;99.90
24338;DHT22;12457;50.832;4.346;2023-08-21T02:01:49;20.70;99.90
24338;DHT22;12457;50.832;4.346;2023-08-21T02:04:16;20.60;99.90
24338;DHT22;12457;50.832;4.346;2023-08-21T02:06:42;20.60;99.90
24338;DHT22;12457;50.832;4.346;2023-08-21T02:09:10;20.40;99.90
24338;DHT22;12457;50.832;4.346;2023-08-21T02:11:35;20.40;99.90
24338;DHT22;12457;50.832;4.346;2023-08-21T02:14:02;20.30;99.90
24338;DHT22;12457;50.832;4.346;2023-08-21T02:16:28;20.20;99.90
24338;DHT22;12457;50.832;4.346;2023-08-21T02:18:54;20.20;99.90
24338;DHT22;12457;50.832;4.346;2023-08-21T02:21:20;20.20;99.90
24338;DHT22;12457;50.832;4.346;2023-08-21T02:23:46;20.10;99.90
24338;DHT22;12457;50.832;4.346;2023-08-21T02:26:12;20.00;99.90
24338;DHT22;12457;50.832;4.346;2023-08-21T02:28:37;20.00;99.90
24338;DHT22;12457;50.832;4.346;2023-08-21T02:31:03;20.10;99.90
24338;DHT22;12457;50.832;4.346;2023-08-21T02:33:30;20.30;99.90
24338;DHT22;12457;50.832;4.346;2023-08-21T02:35:56;20.20;99.90
24338;DHT22;12457;50.832;4.346;2023-08-21T02:38:22;20.30;99.90
24338;DHT22;12457;50.832;4.346;2023-08-21T02:40:48;20.30;99.90
24338;DHT22;12457;50.832;4.346;2023-08-21T02:43:15;20.20;99.90
24338;DHT22;12457;50.832;4.346;2023-08-21T02:45:42;20.20;99.90
24338;DHT22;12457;50.832;4.346;2023-08-21T02:48:08;20.00;99.90
24338;DHT22;12457;50.832;4.346;2023-08-21T02:50:34;20.10;99.90
24338;DHT22;12457;50.832;4.346;2023-08-21T02:53:00;20.20;99.90
24338;DHT22;12457;50.832;4.346;2023-08-21T02:55:25;20.20;99.90
24338;DHT22;12457;50.832;4.346;2023-08-21T02:57:51;20.10;99.90
24338;DHT22;12457;50.832;4.346;2023-08-21T03:00:17;20.10;99.90
24338;DHT22;12457;50.832;4.346;2023-08-21T03:02:43;20.10;99.90
24338;DHT22;12457;50.832;4.346;2023-08-21T03:05:10;20.10;99.90
24338;DHT22;12457;50.832;4.346;2023-08-21T03:07:35;20.10;99.90
24338;DHT22;12457;50.832;4.346;2023-08-21T03:10:01;20.10;99.90
24338;DHT22;12457;50.832;4.346;2023-08-21T03:12:30;20.10;99.90
24338;DHT22;12457;50.832;4.346;2023-08-21T03:14:55;20.10;99.90
24338;DHT22;12457;50.832;4.346;2023-08-21T03:17:21;20.10;99.90
24338;DHT22;12457;50.832;4.346;2023-08-21T03:19:50;20.30;99.90
24338;DHT22;12457;50.832;4.346;2023-08-21T03:22:16;20.30;99.90
24338;DHT22;12457;50.832;4.346;2023-08-21T03:24:42;20.20;99.90
24338;DHT22;12457;50.832;4.346;2023-08-21T03:27:08;20.10;99.90
24338;DHT22;12457;50.832;4.346;2023-08-21T03:29:33;20.10;99.90
24338;DHT22;12457;50.832;4.346;2023-08-21T03:31:59;20.00;99.90
24338;DHT22;12457;50.832;4.346;2023-08-21T03:34:44;19.80;99.90
24338;DHT22;12457;50.832;4.346;2023-08-21T03:37:10;19.80;99.90
24338;DHT22;12457;50.832;4.346;2023-08-21T03:39:37;19.80;99.90
24338;DHT22;12457;50.832;4.346;2023-08-21T03:42:03;19.70;99.90
24338;DHT22;12457;50.832;4.346;2023-08-21T03:44:28;19.70;99.90
24338;DHT22;12457;50.832;4.346;2023-08-21T03:46:54;19.70;99.90
24338;DHT22;12457;50.832;4.346;2023-08-21T03:49:48;19.60;99.90
24338;DHT22;12457;50.832;4.346;2023-08-21T03:52:14;19.60;99.90
24338;DHT22;12457;50.832;4.346;2023-08-21T03:54:40;19.60;99.90
24338;DHT22;12457;50.832;4.346;2023-08-21T03:57:06;19.50;99.90
24338;DHT22;12457;50.832;4.346;2023-08-21T03:59:32;19.50;99.90
24338;DHT22;12457;50.832;4.346;2023-08-21T04:01:58;19.50;99.90
24338;DHT22;12457;50.832;4.346;2023-08-21T04:04:24;19.50;99.90
24338;DHT22;12457;50.832;4.346;2023-08-21T04:06:49;19.60;99.90
24338;DHT22;12457;50.832;4.346;2023-08-21T04:09:15;19.60;99.90
24338;DHT22;12457;50.832;4.346;2023-08-21T04:11:41;19.70;99.90
24338;DHT22;12457;50.832;4.346;2023-08-21T04:14:07;19.80;99.90
24338;DHT22;12457;50.832;4.346;2023-08-21T04:16:32;19.70;99.90
24338;DHT22;12457;50.832;4.346;2023-08-21T04:18:58;19.60;99.90
24338;DHT22;12457;50.832;4.346;2023-08-21T04:21:24;19.60;99.90
24338;DHT22;12457;50.832;4.346;2023-08-21T04:23:50;19.50;99.90
24338;DHT22;12457;50.832;4.346;2023-08-21T04:26:15;19.50;99.90
24338;DHT22;12457;50.832;4.346;2023-08-21T04:28:41;19.30;99.90
24338;DHT22;12457;50.832;4.346;2023-08-21T04:31:07;19.30;99.90
24338;DHT22;12457;50.832;4.346;2023-08-21T04:33:38;19.30;99.90
24338;DHT22;12457;50.832;4.346;2023-08-21T04:36:04;19.40;99.90
24338;DHT22;12457;50.832;4.346;2023-08-21T04:38:30;19.40;99.90
24338;DHT22;12457;50.832;4.346;2023-08-21T04:40:56;19.40;99.90
24338;DHT22;12457;50.832;4.346;2023-08-21T04:43:21;19.40;99.90
24338;DHT22;12457;50.832;4.346;2023-08-21T04:45:52;19.40;99.90
24338;DHT22;12457;50.832;4.346;2023-08-21T04:48:18;19.40;99.90
24338;DHT22;12457;50.832;4.346;2023-08-21T04:50:45;19.40;99.90
24338;DHT22;12457;50.832;4.346;2023-08-21T04:53:11;19.40;99.90
24338;DHT22;12457;50.832;4.346;2023-08-21T04:55:37;19.40;99.90
24338;DHT22;12457;50.832;4.346;2023-08-21T04:58:06;19.40;99.90
24338;DHT22;12457;50.832;4.346;2023-08-21T05:00:32;19.40;99.90
24338;DHT22;12457;50.832;4.346;2023-08-21T05:02:58;19.40;99.90
24338;DHT22;12457;50.832;4.346;2023-08-21T05:05:23;19.50;99.90
24338;DHT22;12457;50.832;4.346;2023-08-21T05:07:49;19.50;99.90
24338;DHT22;12457;50.832;4.346;2023-08-21T05:10:15;19.60;99.90
24338;DHT22;12457;50.832;4.346;2023-08-21T05:12:41;19.50;99.90
24338;DHT22;12457;50.832;4.346;2023-08-21T05:15:07;19.60;99.90
24338;DHT22;12457;50.832;4.346;2023-08-21T05:17:33;19.60;99.90
24338;DHT22;12457;50.832;4.346;2023-08-21T05:20:08;19.60;99.90
24338;DHT22;12457;50.832;4.346;2023-08-21T05:22:35;19.70;99.90
24338;DHT22;12457;50.832;4.346;2023-08-21T05:25:01;19.90;99.90
24338;DHT22;12457;50.832;4.346;2023-08-21T05:27:26;20.30;99.90
24338;DHT22;12457;50.832;4.346;2023-08-21T05:29:53;20.60;99.90
24338;DHT22;12457;50.832;4.346;2023-08-21T05:32:18;21.00;99.90
24338;DHT22;12457;50.832;4.346;2023-08-21T05:34:44;21.20;99.90
24338;DHT22;12457;50.832;4.346;2023-08-21T05:37:11;21.40;99.90
24338;DHT22;12457;50.832;4.346;2023-08-21T05:39:37;21.50;99.90
24338;DHT22;12457;50.832;4.346;2023-08-21T05:42:03;21.60;99.90
24338;DHT22;12457;50.832;4.346;2023-08-21T05:44:29;21.90;99.90
24338;DHT22;12457;50.832;4.346;2023-08-21T05:46:54;22.10;99.90
24338;DHT22;12457;50.832;4.346;2023-08-21T05:49:20;22.10;99.90
24338;DHT22;12457;50.832;4.346;2023-08-21T05:51:49;22.20;99.90
24338;DHT22;12457;50.832;4.346;2023-08-21T05:54:14;22.20;99.90
24338;DHT22;12457;50.832;4.346;2023-08-21T05:56:40;22.20;99.90
24338;DHT22;12457;50.832;4.346;2023-08-21T05:59:06;22.10;99.90
24338;DHT22;12457;50.832;4.346;2023-08-21T06:01:31;21.90;99.90
24338;DHT22;12457;50.832;4.346;2023-08-21T06:03:57;21.80;99.90
24338;DHT22;12457;50.832;4.346;2023-08-21T06:06:23;22.10;99.90
24338;DHT22;12457;50.832;4.346;2023-08-21T06:08:49;22.20;99.90
24338;DHT22;12457;50.832;4.346;2023-08-21T06:11:14;22.10;99.90
24338;DHT22;12457;50.832;4.346;2023-08-21T06:13:41;22.00;99.90
24338;DHT22;12457;50.832;4.346;2023-08-21T06:16:06;21.80;99.90
24338;DHT22;12457;50.832;4.346;2023-08-21T06:18:32;21.90;99.90
24338;DHT22;12457;50.832;4.346;2023-08-21T06:21:20;22.30;99.90
24338;DHT22;12457;50.832;4.346;2023-08-21T06:23:45;22.60;99.90
24338;DHT22;12457;50.832;4.346;2023-08-21T06:26:11;23.00;99.90
24338;DHT22;12457;50.832;4.346;2023-08-21T06:28:36;23.50;99.90
24338;DHT22;12457;50.832;4.346;2023-08-21T06:31:02;23.60;99.90
24338;DHT22;12457;50.832;4.346;2023-08-21T06:33:33;23.20;99.90
24338;DHT22;12457;50.832;4.346;2023-08-21T06:36:05;22.90;99.90
24338;DHT22;12457;50.832;4.346;2023-08-21T06:38:31;22.90;99.90
24338;DHT22;12457;50.832;4.346;2023-08-21T06:40:56;23.00;99.90
24338;DHT22;12457;50.832;4.346;2023-08-21T06:43:22;23.20;99.90
24338;DHT22;12457;50.832;4.346;2023-08-21T06:45:48;23.40;99.90
24338;DHT22;12457;50.832;4.346;2023-08-21T06:48:13;23.30;99.90
24338;DHT22;12457;50.832;4.346;2023-08-21T06:50:45;23.10;99.90
24338;DHT22;12457;50.832;4.346;2023-08-21T06:53:10;23.00;99.90
24338;DHT22;12457;50.832;4.346;2023-08-21T06:55:37;22.80;99.90
24338;DHT22;12457;50.832;4.346;2023-08-21T06:58:02;22.60;99.90
24338;DHT22;12457;50.832;4.346;2023-08-21T07:00:30;22.50;99.90
24338;DHT22;12457;50.832;4.346;2023-08-21T07:02:55;22.60;99.90
24338;DHT22;12457;50.832;4.346;2023-08-21T07:05:21;22.60;99.90
24338;DHT22;12457;50.832;4.346;2023-08-21T07:07:47;22.50;99.90
24338;DHT22;12457;50.832;4.346;2023-08-21T07:10:12;22.60;99.90
24338;DHT22;12457;50.832;4.346;2023-08-21T07:12:41;22.60;99.90
24338;DHT22;12457;50.832;4.346;2023-08-21T07:15:09;22.70;99.90
24338;DHT22;12457;50.832;4.346;2023-08-21T07:17:37;22.90;99.90
24338;DHT22;12457;50.832;4.346;2023-08-21T07:20:13;23.10;99.90
24338;DHT22;12457;50.832;4.346;2023-08-21T07:22:40;23.20;99.90
24338;DHT22;12457;50.832;4.346;2023-08-21T07:25:06;23.30;99.90
24338;DHT22;12457;50.832;4.346;2023-08-21T07:27:32;23.40;99.90
24338;DHT22;12457;50.832;4.346;2023-08-21T07:29:57;23.50;99.90
24338;DHT22;12457;50.832;4.346;2023-08-21T07:32:23;23.40;99.90
24338;DHT22;12457;50.832;4.346;2023-08-21T07:34:53;23.50;99.90
24338;DHT22;12457;50.832;4.346;2023-08-21T07:37:38;23.50;99.90
24338;DHT22;12457;50.832;4.346;2023-08-21T07:40:07;23.80;99.90
24338;DHT22;12457;50.832;4.346;2023-08-21T07:42:33;24.00;99.90
24338;DHT22;12457;50.832;4.346;2023-08-21T07:44:58;24.00;99.90
24338;DHT22;12457;50.832;4.346;2023-08-21T07:47:27;24.10;99.90
24338;DHT22;12457;50.832;4.346;2023-08-21T07:49:52;24.10;99.90
24338;DHT22;12457;50.832;4.346;2023-08-21T07:52:28;24.10;99.90
24338;DHT22;12457;50.832;4.346;2023-08-21T07:54:54;24.10;99.90
24338;DHT22;12457;50.832;4.346;2023-08-21T07:57:20;24.10;99.90
24338;DHT22;12457;50.832;4.346;2023-08-21T07:59:46;24.10;99.90
24338;DHT22;12457;50.832;4.346;2023-08-21T08:02:12;24.10;99.90
24338;DHT22;12457;50.832;4.346;2023-08-21T08:04:38;24.10;99.90
24338;DHT22;12457;50.832;4.346;2023-08-21T08:07:05;24.10;99.90
24338;DHT22;12457;50.832;4.346;2023-08-21T08:09:31;24.10;99.90
24338;DHT22;12457;50.832;4.346;2023-08-21T08:11:58;24.10;99.90
24338;DHT22;12457;50.832;4.346;2023-08-21T08:14:24;24.10;99.90
24338;DHT22;12457;50.832;4.346;2023-08-21T08:16:49;24.20;99.90
24338;DHT22;12457;50.832;4.346;2023-08-21T08:19:15;24.30;99.90
24338;DHT22;12457;50.832;4.346;2023-08-21T08:21:50;24.40;99.90
24338;DHT22;12457;50.832;4.346;2023-08-21T08:24:16;24.40;99.90
24338;DHT22;12457;50.832;4.346;2023-08-21T08:26:41;24.40;99.90
24338;DHT22;12457;50.832;4.346;2023-08-21T08:29:09;24.50;99.90
24338;DHT22;12457;50.832;4.346;2023-08-21T08:31:34;24.40;99.90
24338;DHT22;12457;50.832;4.346;2023-08-21T08:34:04;24.30;99.90
24338;DHT22;12457;50.832;4.346;2023-08-21T08:36:30;24.20;99.90
24338;DHT22;12457;50.832;4.346;2023-08-21T08:38:57;24.00;99.90
24338;DHT22;12457;50.832;4.346;2023-08-21T08:44:03;24.00;99.90
24338;DHT22;12457;50.832;4.346;2023-08-21T08:46:30;24.10;99.90
24338;DHT22;12457;50.832;4.346;2023-08-21T08:48:58;24.30;99.90
24338;DHT22;12457;50.832;4.346;2023-08-21T08:51:27;24.50;99.90
24338;DHT22;12457;50.832;4.346;2023-08-21T08:53:54;24.60;99.90
24338;DHT22;12457;50.832;4.346;2023-08-21T08:56:20;24.80;99.90
24338;DHT22;12457;50.832;4.346;2023-08-21T08:58:46;24.90;99.90
24338;DHT22;12457;50.832;4.346;2023-08-21T09:01:12;24.90;99.90
24338;DHT22;12457;50.832;4.346;2023-08-21T09:03:38;24.60;99.90
24338;DHT22;12457;50.832;4.346;2023-08-21T09:06:04;24.40;99.90
24338;DHT22;12457;50.832;4.346;2023-08-21T09:08:30;24.50;99.90
24338;DHT22;12457;50.832;4.346;2023-08-21T09:11:01;24.70;99.90
24338;DHT22;12457;50.832;4.346;2023-08-21T09:13:27;24.90;99.90
24338;DHT22;12457;50.832;4.346;2023-08-21T09:15:54;25.10;99.90
24338;DHT22;12457;50.832;4.346;2023-08-21T09:18:24;25.20;99.90
24338;DHT22;12457;50.832;4.346;2023-08-21T09:20:50;25.30;99.90
24338;DHT22;12457;50.832;4.346;2023-08-21T09:23:17;25.30;99.90
24338;DHT22;12457;50.832;4.346;2023-08-21T09:25:47;25.50;99.90
24338;DHT22;12457;50.832;4.346;2023-08-21T09:28:15;25.50;99.90
24338;DHT22;12457;50.832;4.346;2023-08-21T09:30:54;25.50;99.90
24338;DHT22;12457;50.832;4.346;2023-08-21T09:33:22;25.70;99.90
24338;DHT22;12457;50.832;4.346;2023-08-21T09:35:55;25.80;99.90
24338;DHT22;12457;50.832;4.346;2023-08-21T09:38:21;25.70;99.90
24338;DHT22;12457;50.832;4.346;2023-08-21T09:40:55;25.50;98.20
24338;DHT22;12457;50.832;4.346;2023-08-21T09:43:22;25.50;99.90
24338;DHT22;12457;50.832;4.346;2023-08-21T09:45:51;25.50;99.00
24338;DHT22;12457;50.832;4.346;2023-08-21T09:48:26;25.50;98.50
24338;DHT22;12457;50.832;4.346;2023-08-21T09:50:54;25.60;99.00
24338;DHT22;12457;50.832;4.346;2023-08-21T09:53:27;25.50;98.80
24338;DHT22;12457;50.832;4.346;2023-08-21T09:55:54;25.50;96.60
24338;DHT22;12457;50.832;4.346;2023-08-21T09:58:21;25.50;97.30
24338;DHT22;12457;50.832;4.346;2023-08-21T10:00:49;25.50;97.80
24338;DHT22;12457;50.832;4.346;2023-08-21T10:03:20;25.50;98.20
24338;DHT22;12457;50.832;4.346;2023-08-21T10:05:47;25.70;98.20
24338;DHT22;12457;50.832;4.346;2023-08-21T10:08:23;25.60;97.90
24338;DHT22;12457;50.832;4.346;2023-08-21T10:10:50;25.80;96.70
24338;DHT22;12457;50.832;4.346;2023-08-21T10:13:16;26.00;94.80
24338;DHT22;12457;50.832;4.346;2023-08-21T10:15:42;26.20;92.60
24338;DHT22;12457;50.832;4.346;2023-08-21T10:18:22;26.10;93.50
24338;DHT22;12457;50.832;4.346;2023-08-21T10:20:50;25.90;94.60
24338;DHT22;12457;50.832;4.346;2023-08-21T10:23:29;26.00;94.80
24338;DHT22;12457;50.832;4.346;2023-08-21T10:26:00;26.40;94.70
24338;DHT22;12457;50.832;4.346;2023-08-21T10:31:40;26.60;95.50
24338;DHT22;12457;50.832;4.346;2023-08-21T10:34:10;26.70;95.50
24338;DHT22;12457;50.832;4.346;2023-08-21T10:42:04;26.70;93.00
24338;DHT22;12457;50.832;4.346;2023-08-21T10:47:23;27.10;89.60
24338;DHT22;12457;50.832;4.346;2023-08-21T10:49:56;27.40;85.90
24338;DHT22;12457;50.832;4.346;2023-08-21T10:52:30;27.50;85.60
24338;DHT22;12457;50.832;4.346;2023-08-21T10:54:58;27.60;88.80
24338;DHT22;12457;50.832;4.346;2023-08-21T10:57:27;27.70;88.70
24338;DHT22;12457;50.832;4.346;2023-08-21T10:59:55;27.70;87.10
24338;DHT22;12457;50.832;4.346;2023-08-21T11:02:24;27.80;84.80
24338;DHT22;12457;50.832;4.346;2023-08-21T11:04:55;27.90;84.80
24338;DHT22;12457;50.832;4.346;2023-08-21T11:07:29;27.80;85.90
24338;DHT22;12457;50.832;4.346;2023-08-21T11:09:55;27.50;87.60
24338;DHT22;12457;50.832;4.346;2023-08-21T11:12:22;27.50;88.60
24338;DHT22;12457;50.832;4.346;2023-08-21T11:14:50;27.90;88.90
24338;DHT22;12457;50.832;4.346;2023-08-21T11:17:16;27.80;87.50
24338;DHT22;12457;50.832;4.346;2023-08-21T11:19:46;27.80;88.60
24338;DHT22;12457;50.832;4.346;2023-08-21T11:22:14;27.80;88.40
24338;DHT22;12457;50.832;4.346;2023-08-21T11:24:45;27.80;88.50
24338;DHT22;12457;50.832;4.346;2023-08-21T11:27:13;27.50;88.70
24338;DHT22;12457;50.832;4.346;2023-08-21T11:29:47;27.10;90.20
24338;DHT22;12457;50.832;4.346;2023-08-21T11:32:17;27.40;90.70
24338;DHT22;12457;50.832;4.346;2023-08-21T11:37:19;27.50;89.90
24338;DHT22;12457;50.832;4.346;2023-08-21T11:39:51;27.30;90.50
24338;DHT22;12457;50.832;4.346;2023-08-21T11:42:19;27.30;90.50
24338;DHT22;12457;50.832;4.346;2023-08-21T11:44:52;27.30;90.60
24338;DHT22;12457;50.832;4.346;2023-08-21T11:47:21;27.10;90.80
24338;DHT22;12457;50.832;4.346;2023-08-21T11:49:48;27.30;91.30
24338;DHT22;12457;50.832;4.346;2023-08-21T11:52:18;27.50;90.80
24338;DHT22;12457;50.832;4.346;2023-08-21T11:54:48;28.10;90.40
24338;DHT22;12457;50.832;4.346;2023-08-21T11:57:17;28.20;89.20
24338;DHT22;12457;50.832;4.346;2023-08-21T11:59:43;28.00;89.40
24338;DHT22;12457;50.832;4.346;2023-08-21T12:02:26;28.10;89.50
24338;DHT22;12457;50.832;4.346;2023-08-21T12:05:02;28.20;88.40
24338;DHT22;12457;50.832;4.346;2023-08-21T12:07:34;28.20;88.10
24338;DHT22;12457;50.832;4.346;2023-08-21T12:10:00;28.20;87.80
24338;DHT22;12457;50.832;4.346;2023-08-21T12:12:26;28.30;88.70
24338;DHT22;12457;50.832;4.346;2023-08-21T12:14:53;28.20;88.30
24338;DHT22;12457;50.832;4.346;2023-08-21T12:17:19;28.20;87.80
24338;DHT22;12457;50.832;4.346;2023-08-21T12:19:47;27.90;88.40
24338;DHT22;12457;50.832;4.346;2023-08-21T12:22:13;28.00;88.30
24338;DHT22;12457;50.832;4.346;2023-08-21T12:24:39;28.00;88.30
24338;DHT22;12457;50.832;4.346;2023-08-21T12:27:07;28.10;89.20
24338;DHT22;12457;50.832;4.346;2023-08-21T12:29:34;28.10;88.50
24338;DHT22;12457;50.832;4.346;2023-08-21T12:31:59;28.30;88.10
24338;DHT22;12457;50.832;4.346;2023-08-21T12:34:28;27.80;87.50
24338;DHT22;12457;50.832;4.346;2023-08-21T12:36:54;27.70;88.80
24338;DHT22;12457;50.832;4.346;2023-08-21T12:42:24;27.40;90.20
24338;DHT22;12457;50.832;4.346;2023-08-21T12:44:51;27.60;89.00
24338;DHT22;12457;50.832;4.346;2023-08-21T12:47:17;28.00;87.60
24338;DHT22;12457;50.832;4.346;2023-08-21T12:49:43;28.10;87.90
24338;DHT22;12457;50.832;4.346;2023-08-21T12:52:09;28.30;87.50
24338;DHT22;12457;50.832;4.346;2023-08-21T12:54:53;28.30;86.90
24338;DHT22;12457;50.832;4.346;2023-08-21T12:57:19;28.00;86.50
24338;DHT22;12457;50.832;4.346;2023-08-21T12:59:45;27.90;87.90
24338;DHT22;12457;50.832;4.346;2023-08-21T13:02:10;28.00;87.30
24338;DHT22;12457;50.832;4.346;2023-08-21T13:04:36;28.20;85.60
24338;DHT22;12457;50.832;4.346;2023-08-21T13:07:03;28.40;85.20
24338;DHT22;12457;50.832;4.346;2023-08-21T13:09:30;28.30;84.30
24338;DHT22;12457;50.832;4.346;2023-08-21T13:11:56;28.10;83.60
24338;DHT22;12457;50.832;4.346;2023-08-21T13:14:22;28.00;83.10
24338;DHT22;12457;50.832;4.346;2023-08-21T13:16:49;28.10;82.80
24338;DHT22;12457;50.832;4.346;2023-08-21T13:19:15;28.30;82.10
24338;DHT22;12457;50.832;4.346;2023-08-21T13:21:40;28.40;82.60
24338;DHT22;12457;50.832;4.346;2023-08-21T13:24:06;28.50;81.80
24338;DHT22;12457;50.832;4.346;2023-08-21T13:26:32;28.40;79.70
24338;DHT22;12457;50.832;4.346;2023-08-21T13:28:58;28.30;80.40
24338;DHT22;12457;50.832;4.346;2023-08-21T13:31:24;28.20;77.10
24338;DHT22;12457;50.832;4.346;2023-08-21T13:33:51;28.10;79.30
24338;DHT22;12457;50.832;4.346;2023-08-21T13:36:17;28.00;80.80
24338;DHT22;12457;50.832;4.346;2023-08-21T13:38:43;27.80;80.90
24338;DHT22;12457;50.832;4.346;2023-08-21T13:41:10;27.70;81.10
24338;DHT22;12457;50.832;4.346;2023-08-21T13:43:36;27.70;80.40
24338;DHT22;12457;50.832;4.346;2023-08-21T13:46:03;27.80;79.70
24338;DHT22;12457;50.832;4.346;2023-08-21T13:48:30;28.00;78.40
24338;DHT22;12457;50.832;4.346;2023-08-21T13:50:56;28.00;77.30
24338;DHT22;12457;50.832;4.346;2023-08-21T13:53:23;28.00;77.00
24338;DHT22;12457;50.832;4.346;2023-08-21T13:55:50;28.00;74.20
24338;DHT22;12457;50.832;4.346;2023-08-21T13:58:17;27.80;74.80
24338;DHT22;12457;50.832;4.346;2023-08-21T14:00:44;27.90;73.90
24338;DHT22;12457;50.832;4.346;2023-08-21T14:03:10;28.00;74.00
24338;DHT22;12457;50.832;4.346;2023-08-21T14:05:36;28.00;74.60
24338;DHT22;12457;50.832;4.346;2023-08-21T14:08:02;27.90;73.80
24338;DHT22;12457;50.832;4.346;2023-08-21T14:11:06;27.70;73.30
24338;DHT22;12457;50.832;4.346;2023-08-21T14:13:41;27.70;73.60
24338;DHT22;12457;50.832;4.346;2023-08-21T14:16:07;27.80;72.50
24338;DHT22;12457;50.832;4.346;2023-08-21T14:18:34;27.80;71.40
24338;DHT22;12457;50.832;4.346;2023-08-21T14:21:00;27.60;71.20
24338;DHT22;12457;50.832;4.346;2023-08-21T14:23:35;27.50;71.40
24338;DHT22;12457;50.832;4.346;2023-08-21T14:26:02;27.60;71.40
24338;DHT22;12457;50.832;4.346;2023-08-21T14:28:28;27.70;71.70
24338;DHT22;12457;50.832;4.346;2023-08-21T14:30:54;27.70;69.90
24338;DHT22;12457;50.832;4.346;2023-08-21T14:33:22;27.80;70.10
24338;DHT22;12457;50.832;4.346;2023-08-21T14:35:48;28.00;70.20
24338;DHT22;12457;50.832;4.346;2023-08-21T14:38:15;28.10;69.30
24338;DHT22;12457;50.832;4.346;2023-08-21T14:40:41;28.20;68.00
24338;DHT22;12457;50.832;4.346;2023-08-21T14:43:07;28.20;68.30
24338;DHT22;12457;50.832;4.346;2023-08-21T14:45:34;28.20;67.30
24338;DHT22;12457;50.832;4.346;2023-08-21T14:47:59;28.10;66.30
24338;DHT22;12457;50.832;4.346;2023-08-21T14:50:25;27.90;66.00
24338;DHT22;12457;50.832;4.346;2023-08-21T14:52:51;27.80;66.20
24338;DHT22;12457;50.832;4.346;2023-08-21T14:55:25;27.70;66.40
24338;DHT22;12457;50.832;4.346;2023-08-21T14:57:57;27.50;66.10
24338;DHT22;12457;50.832;4.346;2023-08-21T15:00:23;27.60;65.60
24338;DHT22;12457;50.832;4.346;2023-08-21T15:02:49;27.70;65.90
24338;DHT22;12457;50.832;4.346;2023-08-21T15:05:19;27.70;65.70
24338;DHT22;12457;50.832;4.346;2023-08-21T15:07:48;27.90;65.60
24338;DHT22;12457;50.832;4.346;2023-08-21T15:10:35;28.10;66.00
24338;DHT22;12457;50.832;4.346;2023-08-21T15:13:01;28.10;65.30
24338;DHT22;12457;50.832;4.346;2023-08-21T15:15:29;28.10;65.70
24338;DHT22;12457;50.832;4.346;2023-08-21T15:17:56;28.20;64.90
24338;DHT22;12457;50.832;4.346;2023-08-21T15:20:23;28.00;64.70
24338;DHT22;12457;50.832;4.346;2023-08-21T15:22:50;27.90;65.10
24338;DHT22;12457;50.832;4.346;2023-08-21T15:28:26;28.00;64.40
24338;DHT22;12457;50.832;4.346;2023-08-21T15:30:54;28.10;64.30
24338;DHT22;12457;50.832;4.346;2023-08-21T15:33:20;28.10;64.70
24338;DHT22;12457;50.832;4.346;2023-08-21T15:35:46;28.10;64.70
24338;DHT22;12457;50.832;4.346;2023-08-21T15:38:12;28.20;64.70
24338;DHT22;12457;50.832;4.346;2023-08-21T15:40:38;28.10;64.10
24338;DHT22;12457;50.832;4.346;2023-08-21T15:43:07;28.20;63.80
24338;DHT22;12457;50.832;4.346;2023-08-21T15:45:33;28.20;63.00
24338;DHT22;12457;50.832;4.346;2023-08-21T15:48:00;28.10;62.90
24338;DHT22;12457;50.832;4.346;2023-08-21T15:50:27;28.10;62.90
24338;DHT22;12457;50.832;4.346;2023-08-21T15:52:53;27.70;62.70
24338;DHT22;12457;50.832;4.346;2023-08-21T15:55:19;27.40;63.50